This is the latest recevied weather packets stored in our database for station/object WB4MOZ-3. If no packets are shown the sender has not sent any weather packets the latest 10 day(s).
| Time | Temp. | Humidity | Pressure | Rain* | Wind** | Luminosity | Snow |
|---|---|---|---|---|---|---|---|
| 1777550861 | 23.89° C | 94% | 1012.1 hPa | 0 mm | - | - | - |
| 1777550777 | 23.89° C | 94% | 1012.1 hPa | 0 mm | - | - | - |
| 1777550562 | 23.89° C | 94% | 1012.1 hPa | 0 mm | - | - | - |
| 1777549828 | 24.44° C | 93% | 1012.1 hPa | 0 mm | - | - | - |
| 1777549661 | 24.44° C | 93% | 1012.1 hPa | 0 mm | - | - | - |
| 1777549528 | 24.44° C | 94% | 1012.1 hPa | 0 mm | - | - | - |
| 1777549362 | 24.44° C | 94% | 1012.1 hPa | 0 mm | - | - | - |
| 1777548903 | 23.89° C | 96% | 1011.9 hPa | 0 mm | - | - | - |
| 1777548761 | 23.89° C | 96% | 1011.9 hPa | 0 mm | - | - | - |
| 1777547884 | 23.33° C | 96% | 1011.6 hPa | 0 mm | - | - | - |
| 1777547561 | 23.33° C | 96% | 1011.6 hPa | 0 mm | - | - | - |
| 1777547424 | 22.78° C | 96% | 1011.5 hPa | 0 mm | - | - | - |
| 1777547263 | 22.78° C | 96% | 1011.5 hPa | 0 mm | - | - | - |
| 1777546962 | 22.78° C | 96% | 1011.4 hPa | 0 mm | - | - | - |
| 1777546661 | 22.78° C | 95% | 1011.4 hPa | 0 mm | - | - | - |
| 1777546362 | 22.78° C | 95% | 1011.4 hPa | 0 mm | - | - | - |
| 1777545762 | 22.78° C | 96% | 1011.2 hPa | 0 mm | - | - | - |
| 1777544862 | 23.33° C | 95% | 1011.3 hPa | 0 mm | - | - | - |
| 1777544782 | 23.33° C | 95% | 1011.2 hPa | 0 mm | - | - | - |
| 1777544562 | 23.33° C | 95% | 1011.2 hPa | 0 mm | - | - | - |
| 1777544263 | 23.33° C | 94% | 1011.2 hPa | 0 mm | - | - | - |
| 1777543663 | 23.33° C | 94% | 1011.3 hPa | 0 mm | - | - | - |
| 1777543364 | 23.33° C | 94% | 1011.2 hPa | 0 mm | - | - | - |
| 1777543062 | 23.33° C | 94% | 1011.2 hPa | 0 mm | - | - | - |
| 1777542762 | 23.33° C | 93% | 1011.2 hPa | 0 mm | - | - | - |
* Rain latest hour (hover to see other rain measurements)
** Current wind speed in m/s (hover to see current wind gust speed)